createdAt,value
2023-02-24T00:06:03.295Z,87.1
2023-02-24T00:09:03.282Z,87.1
2023-02-24T00:12:03.255Z,86.6
2023-02-24T00:15:03.257Z,86.6
2023-02-24T00:18:03.267Z,86.6
2023-02-24T00:21:03.283Z,86.6
2023-02-24T00:24:03.271Z,86.6
2023-02-24T00:27:03.324Z,86.6
2023-02-24T00:30:03.314Z,86.6
2023-02-24T00:33:03.724Z,85
2023-02-24T00:36:03.244Z,85
2023-02-24T00:39:03.300Z,85
2023-02-24T00:42:03.397Z,85
2023-02-24T00:45:03.360Z,85
2023-02-24T00:48:03.319Z,85
2023-02-24T00:51:03.283Z,85
2023-02-24T00:54:03.262Z,85
2023-02-24T00:57:03.292Z,85
2023-02-24T01:00:03.238Z,85.3
2023-02-24T01:03:03.337Z,85.3
2023-02-24T01:06:03.298Z,85.3
2023-02-24T01:09:03.423Z,85.3
2023-02-24T01:12:03.429Z,85.7
2023-02-24T01:15:03.271Z,85.7
2023-02-24T01:18:03.255Z,85.7
2023-02-24T01:21:03.282Z,85.7
2023-02-24T01:24:03.350Z,85.7
2023-02-24T01:27:03.317Z,85.7
2023-02-24T01:30:03.340Z,85.7
2023-02-24T01:33:04.191Z,85.7
2023-02-24T01:36:03.369Z,85.7
2023-02-24T01:39:03.222Z,85.7
2023-02-24T01:42:03.274Z,85.7
2023-02-24T01:45:03.487Z,85.7
2023-02-24T01:48:03.360Z,85.7
2023-02-24T01:51:03.272Z,85.7
2023-02-24T01:54:03.333Z,85.7
2023-02-24T01:57:03.408Z,85.7
2023-02-24T02:00:03.351Z,85.7
2023-02-24T02:03:03.539Z,85.7
2023-02-24T02:06:03.501Z,85.7
2023-02-24T02:09:03.336Z,85.7
2023-02-24T02:12:03.373Z,85.7
2023-02-24T02:15:03.425Z,85.7
2023-02-24T02:18:03.357Z,87
2023-02-24T02:21:03.375Z,87
2023-02-24T02:24:03.324Z,87
2023-02-24T02:27:03.332Z,87
2023-02-24T02:30:03.303Z,87
2023-02-24T02:33:03.373Z,87
2023-02-24T02:36:03.280Z,87
2023-02-24T02:39:03.392Z,87.2
2023-02-24T02:42:03.392Z,87.2
2023-02-24T02:45:03.354Z,87
2023-02-24T02:48:03.319Z,87
2023-02-24T02:51:03.374Z,87
2023-02-24T02:54:03.308Z,87
2023-02-24T02:57:03.352Z,87
2023-02-24T03:00:03.404Z,87
2023-02-24T03:03:03.367Z,87
2023-02-24T03:06:03.369Z,87
2023-02-24T03:09:03.372Z,86.5
2023-02-24T03:12:03.376Z,86.5
2023-02-24T03:15:03.453Z,86.5
2023-02-24T03:18:03.318Z,86.5
2023-02-24T03:21:03.348Z,86.5
2023-02-24T03:24:03.306Z,86.5
2023-02-24T03:27:03.302Z,86.5
2023-02-24T03:30:03.517Z,86.5
2023-02-24T03:33:03.356Z,85.8
2023-02-24T03:36:03.358Z,85.8
2023-02-24T03:39:03.329Z,85.8
2023-02-24T03:42:03.325Z,85.8
2023-02-24T03:45:03.306Z,85.8
2023-02-24T03:48:03.478Z,85.8
2023-02-24T03:51:03.327Z,85.2
2023-02-24T03:54:03.312Z,85.2
2023-02-24T03:57:03.281Z,85.2
2023-02-24T04:00:03.350Z,85.2
2023-02-24T04:03:03.330Z,85.2
2023-02-24T04:06:03.382Z,85.2
2023-02-24T04:09:03.332Z,84.3
2023-02-24T04:12:03.362Z,84.3
2023-02-24T04:15:03.279Z,84.3
2023-02-24T04:18:03.361Z,84.3
2023-02-24T04:21:03.422Z,84.3
2023-02-24T04:24:03.318Z,84.3
2023-02-24T04:27:03.394Z,84.3
2023-02-24T04:30:03.346Z,84.3
2023-02-24T04:33:03.361Z,84.5
2023-02-24T04:36:03.363Z,84.5
2023-02-24T04:39:03.313Z,84.5
2023-02-24T04:42:03.313Z,84.5
2023-02-24T04:45:03.309Z,84.5
2023-02-24T04:48:03.612Z,84.5
2023-02-24T04:51:03.284Z,84.5
2023-02-24T04:54:03.344Z,84.5
2023-02-24T04:57:03.316Z,84.5
2023-02-24T05:00:03.423Z,84.8
2023-02-24T05:03:03.333Z,84.8
2023-02-24T05:06:03.343Z,84.8
2023-02-24T05:09:03.337Z,84.8
2023-02-24T05:12:03.347Z,84.8
2023-02-24T05:15:03.340Z,84.8
2023-02-24T05:18:03.394Z,84.8
2023-02-24T05:21:04.414Z,84.8
2023-02-24T05:24:03.495Z,81.4
2023-02-24T05:27:03.328Z,81.4
2023-02-24T05:30:03.529Z,81.4
2023-02-24T05:33:03.372Z,81.4
2023-02-24T05:36:04.205Z,81.4
2023-02-24T05:39:03.380Z,81.7
2023-02-24T05:42:03.286Z,81.7
2023-02-24T05:45:03.377Z,81.7
2023-02-24T05:48:03.339Z,81.7
2023-02-24T05:51:05.139Z,81.7
2023-02-24T05:54:03.301Z,81.7
2023-02-24T05:57:03.333Z,81.7
2023-02-24T06:00:03.393Z,81.6
2023-02-24T06:03:03.470Z,81.6
2023-02-24T06:06:03.354Z,81.6
2023-02-24T06:09:03.308Z,81.6
2023-02-24T06:12:03.612Z,81.6
2023-02-24T06:15:03.401Z,81.6
2023-02-24T06:18:03.453Z,81.6
2023-02-24T06:21:03.351Z,81.6
2023-02-24T06:24:03.422Z,81.6
2023-02-24T06:27:03.359Z,81.6
2023-02-24T06:30:03.939Z,81.6
2023-02-24T06:33:03.378Z,81.6
2023-02-24T06:36:03.400Z,76.5
2023-02-24T06:39:03.360Z,76.5
2023-02-24T06:42:03.418Z,76.5
2023-02-24T06:45:03.325Z,76.5
2023-02-24T06:48:03.561Z,76.9
2023-02-24T06:51:03.413Z,76.9
2023-02-24T06:54:03.335Z,76.9
2023-02-24T06:57:03.528Z,76.9
2023-02-24T07:00:03.481Z,76.9
2023-02-24T07:03:03.487Z,76.9
2023-02-24T07:06:03.441Z,76.9
2023-02-24T07:09:03.414Z,76.5
2023-02-24T07:12:03.399Z,76.5
2023-02-24T07:15:03.439Z,76.5
2023-02-24T07:18:03.411Z,76.5
2023-02-24T07:21:03.365Z,76.5
2023-02-24T07:24:03.449Z,76.5
2023-02-24T07:27:03.360Z,76.5
2023-02-24T07:30:03.678Z,76.5
2023-02-24T07:33:03.424Z,75.2
2023-02-24T07:36:03.396Z,75.2
2023-02-24T07:39:03.490Z,75.2
2023-02-24T07:42:03.502Z,75.2
2023-02-24T07:45:03.494Z,75.2
2023-02-24T07:48:03.916Z,75.2
2023-02-24T07:51:03.392Z,74.8
2023-02-24T07:54:03.608Z,74.8
2023-02-24T07:57:03.398Z,74.8
2023-02-24T08:00:03.971Z,74.8
2023-02-24T08:03:03.441Z,74.8
2023-02-24T08:06:03.439Z,74.9
2023-02-24T08:09:03.387Z,74.9
2023-02-24T08:12:03.576Z,74.9
2023-02-24T08:15:03.399Z,74.9
2023-02-24T08:18:03.433Z,74.9
2023-02-24T08:21:03.357Z,75.1
2023-02-24T08:24:03.405Z,75.1
2023-02-24T08:27:03.449Z,75.1
2023-02-24T08:30:03.508Z,75.1
2023-02-24T08:33:03.382Z,75.1
2023-02-24T08:36:04.682Z,75.1
2023-02-24T08:39:03.438Z,75.1
2023-02-24T08:42:03.408Z,75.1
2023-02-24T08:45:03.516Z,75.1
2023-02-24T08:48:03.418Z,75.1
2023-02-24T08:51:03.391Z,74.7
2023-02-24T08:54:03.543Z,74.7
2023-02-24T08:57:03.380Z,74.7
2023-02-24T09:00:03.556Z,74.7
2023-02-24T09:03:03.359Z,74.7
2023-02-24T09:06:03.351Z,74.7
2023-02-24T09:09:03.419Z,74.4
2023-02-24T09:12:03.385Z,74.4
2023-02-24T09:15:03.549Z,74.4
2023-02-24T09:18:03.581Z,74.4
2023-02-24T09:21:03.520Z,74.4
2023-02-24T09:24:03.426Z,74.4
2023-02-24T09:27:03.477Z,74.4
2023-02-24T09:30:03.465Z,75.2
2023-02-24T09:33:04.053Z,75.2
2023-02-24T09:36:03.505Z,75.2
2023-02-24T09:39:03.843Z,75.2
2023-02-24T09:42:03.524Z,75.2
2023-02-24T09:45:03.461Z,75.2
2023-02-24T09:48:03.395Z,75.2
2023-02-24T09:51:07.241Z,75.2
2023-02-24T09:54:03.339Z,75.2
2023-02-24T09:57:03.564Z,75.2
2023-02-24T10:00:04.247Z,75.2
2023-02-24T10:03:03.344Z,80.4
2023-02-24T10:06:03.375Z,80.4
2023-02-24T10:09:03.506Z,80.4
2023-02-24T10:12:03.414Z,80.4
2023-02-24T10:15:03.444Z,80.4
2023-02-24T10:18:03.337Z,80.4
2023-02-24T10:21:03.587Z,80.4
2023-02-24T10:24:03.512Z,82.9
2023-02-24T10:27:16.622Z,82.9
2023-02-24T10:30:03.569Z,82.9
2023-02-24T10:33:03.644Z,82.9
2023-02-24T10:36:03.370Z,83.9
2023-02-24T10:39:03.453Z,83.9
2023-02-24T10:42:03.497Z,83.9
2023-02-24T10:45:09.693Z,83.9
2023-02-24T10:48:03.450Z,83.9
2023-02-24T10:51:03.372Z,83.9
2023-02-24T10:54:03.435Z,84.8
2023-02-24T10:57:03.512Z,84.8
2023-02-24T11:00:03.498Z,84.8
2023-02-24T11:03:03.399Z,84.8
2023-02-24T11:06:03.420Z,85.2
2023-02-24T11:09:03.372Z,85.2
2023-02-24T11:12:03.441Z,85.2
2023-02-24T11:15:03.512Z,85.2
2023-02-24T11:18:03.609Z,85.7
2023-02-24T11:21:03.420Z,85.7
2023-02-24T11:24:03.371Z,85.7
2023-02-24T11:27:08.127Z,85.9
2023-02-24T11:30:03.465Z,85.9
2023-02-24T11:33:03.595Z,85.9
2023-02-24T11:36:03.338Z,86
2023-02-24T11:39:23.632Z,86
2023-02-24T11:42:03.434Z,86
2023-02-24T11:45:03.387Z,86.3
2023-02-24T11:48:03.491Z,86.3
2023-02-24T11:51:03.407Z,86.3
2023-02-24T11:54:03.421Z,86.3
2023-02-24T11:57:03.362Z,86.6
2023-02-24T12:00:03.411Z,86.6
2023-02-24T12:03:06.647Z,86.6
2023-02-24T12:06:03.556Z,86.7
2023-02-24T12:09:03.439Z,86.7
2023-02-24T12:12:03.406Z,86.7
2023-02-24T12:15:03.414Z,86.7
2023-02-24T12:18:03.377Z,86.6
2023-02-24T12:21:03.388Z,86.6
2023-02-24T12:24:03.347Z,86.6
2023-02-24T12:27:03.401Z,86.6
2023-02-24T12:30:03.510Z,86.6
2023-02-24T12:33:03.761Z,86.6
2023-02-24T12:36:03.488Z,86.7
2023-02-24T12:39:03.455Z,86.7
2023-02-24T12:42:03.407Z,86.7
2023-02-24T12:45:03.415Z,86.7
2023-02-24T12:48:03.382Z,86.7
2023-02-24T12:51:03.448Z,86.8
2023-02-24T12:54:03.597Z,86.8
2023-02-24T12:57:03.535Z,86.8
2023-02-24T13:00:03.493Z,86.8
2023-02-24T13:03:03.395Z,86.8
2023-02-24T13:06:03.381Z,87.2
2023-02-24T13:09:03.508Z,87.2
2023-02-24T13:12:03.387Z,87.2
2023-02-24T13:15:03.427Z,87.2
2023-02-24T13:18:03.486Z,87.2
2023-02-24T13:21:03.451Z,87.2
2023-02-24T13:24:03.359Z,87.2
2023-02-24T13:27:03.450Z,87.2
2023-02-24T13:30:03.656Z,87.5
2023-02-24T13:33:03.360Z,87.5
2023-02-24T13:36:03.378Z,87.5
2023-02-24T13:39:03.390Z,87.5
2023-02-24T13:42:03.499Z,87.5
2023-02-24T13:45:03.395Z,87.5
2023-02-24T13:48:05.259Z,87.5
2023-02-24T13:51:03.482Z,87.5
2023-02-24T13:54:03.387Z,87.5
2023-02-24T13:57:03.476Z,87.5
2023-02-24T14:00:03.692Z,87.5
2023-02-24T14:03:03.476Z,87.1
2023-02-24T14:06:03.482Z,87.1
2023-02-24T14:09:04.232Z,87.1
2023-02-24T14:12:03.355Z,87.1
2023-02-24T14:15:03.465Z,87.1
2023-02-24T14:18:03.369Z,87.1
2023-02-24T14:21:03.364Z,87.1
2023-02-24T14:24:04.234Z,87.1
2023-02-24T14:27:03.570Z,87.1
2023-02-24T14:30:03.417Z,88.3
2023-02-24T14:33:03.417Z,88.3
2023-02-24T14:36:03.362Z,88.3
2023-02-24T14:39:04.336Z,88.3
2023-02-24T14:42:03.390Z,88.3
2023-02-24T14:45:03.471Z,88.3
2023-02-24T14:48:03.479Z,88.4
2023-02-24T14:51:03.428Z,88.4
2023-02-24T14:54:03.394Z,88.4
2023-02-24T14:57:03.534Z,88.4
2023-02-24T15:00:03.520Z,88.4
2023-02-24T15:03:03.518Z,88.4
2023-02-24T15:06:03.376Z,88.4
2023-02-24T15:09:03.429Z,88.6
2023-02-24T15:12:03.398Z,88.6
2023-02-24T15:15:03.528Z,88.6
2023-02-24T15:18:03.420Z,88.6
2023-02-24T15:21:03.626Z,88.6
2023-02-24T15:24:03.734Z,88.9
2023-02-24T15:27:03.432Z,88.9
2023-02-24T15:30:03.535Z,88.9
2023-02-24T15:33:03.658Z,88.9
2023-02-24T15:36:03.414Z,88.9
2023-02-24T15:39:03.387Z,88.6
2023-02-24T15:42:03.443Z,88.6
2023-02-24T15:45:03.421Z,88.6
2023-02-24T15:48:03.384Z,88.6
2023-02-24T15:51:03.317Z,88.6
2023-02-24T15:54:03.693Z,88.6
2023-02-24T15:57:03.447Z,88.6
2023-02-24T16:00:03.394Z,88.6
2023-02-24T16:03:03.405Z,88.6
2023-02-24T16:06:03.384Z,88.6
2023-02-24T16:09:03.398Z,88.6
2023-02-24T16:12:03.410Z,88.6
2023-02-24T16:15:03.437Z,88.6
2023-02-24T16:18:03.397Z,88.6
2023-02-24T16:21:03.540Z,88.5
2023-02-24T16:24:03.487Z,88.5
2023-02-24T16:27:03.538Z,88.5
2023-02-24T16:30:03.637Z,88.5
2023-02-24T16:33:03.912Z,88.5
2023-02-24T16:36:03.450Z,88.7
2023-02-24T16:39:03.515Z,88.7
2023-02-24T16:42:03.414Z,88.7
2023-02-24T16:45:03.435Z,88.7
2023-02-24T16:48:05.011Z,88.7
2023-02-24T16:51:03.332Z,88.7
2023-02-24T16:54:03.361Z,88.7
2023-02-24T16:57:03.399Z,88.7
2023-02-24T17:00:03.382Z,88.7
2023-02-24T17:03:03.297Z,88.7
2023-02-24T17:06:03.494Z,88.7
2023-02-24T17:09:03.392Z,88.7
2023-02-24T17:12:03.335Z,88.7
2023-02-24T17:15:03.454Z,88.7
2023-02-24T17:18:03.357Z,88.7
2023-02-24T17:21:03.274Z,88.7
2023-02-24T17:24:03.914Z,88.7
2023-02-24T17:27:03.425Z,88.7
2023-02-24T17:30:03.371Z,88.7
2023-02-24T17:33:03.489Z,88.7
2023-02-24T17:36:03.331Z,88.7
2023-02-24T17:39:03.340Z,88.6
2023-02-24T17:42:03.984Z,88.6
2023-02-24T17:45:03.329Z,88.6
2023-02-24T17:48:03.352Z,88.6
2023-02-24T17:51:03.328Z,88.6
2023-02-24T17:54:03.513Z,88.6
2023-02-24T17:57:03.304Z,88.6
2023-02-24T18:00:03.399Z,88.6
2023-02-24T18:03:06.183Z,88.6
2023-02-24T18:06:03.383Z,88.6
2023-02-24T18:09:03.359Z,88.6
2023-02-24T18:12:03.447Z,88.6
2023-02-24T18:15:11.766Z,89
2023-02-24T18:18:03.394Z,89
2023-02-24T18:21:03.424Z,89
2023-02-24T18:24:03.356Z,89
2023-02-24T18:27:03.279Z,89
2023-02-24T18:30:03.471Z,89
2023-02-24T18:33:03.896Z,89
2023-02-24T18:36:03.316Z,89
2023-02-24T18:39:03.378Z,89
2023-02-24T18:42:03.388Z,89
2023-02-24T18:45:03.466Z,89
2023-02-24T18:48:03.382Z,89
2023-02-24T18:51:03.366Z,89
2023-02-24T18:54:03.406Z,89
2023-02-24T18:57:03.347Z,89
2023-02-24T19:00:03.411Z,89
2023-02-24T19:03:03.586Z,89
2023-02-24T19:06:03.342Z,89
2023-02-24T19:09:03.326Z,89
2023-02-24T19:12:03.356Z,89
2023-02-24T19:15:03.308Z,89
2023-02-24T19:18:03.321Z,89
2023-02-24T19:21:03.293Z,89
2023-02-24T19:24:03.390Z,89
2023-02-24T19:27:03.342Z,89
2023-02-24T19:30:03.425Z,89
2023-02-24T19:33:04.004Z,89
2023-02-24T19:36:03.345Z,89
2023-02-24T19:39:03.362Z,89
2023-02-24T19:42:03.376Z,89
2023-02-24T19:45:03.395Z,89
2023-02-24T19:48:03.505Z,89
2023-02-24T19:51:03.256Z,89
2023-02-24T19:54:03.455Z,89
2023-02-24T19:57:03.289Z,89
2023-02-24T20:00:03.352Z,89
2023-02-24T20:03:03.308Z,89
2023-02-24T20:06:03.358Z,89
2023-02-24T20:09:03.280Z,89
2023-02-24T20:12:03.359Z,89
2023-02-24T20:15:03.429Z,89
2023-02-24T20:18:03.403Z,89
2023-02-24T20:21:03.320Z,89
2023-02-24T20:24:03.387Z,89
2023-02-24T20:27:03.410Z,89
2023-02-24T20:30:03.371Z,89
2023-02-24T20:33:03.323Z,89
2023-02-24T20:36:03.529Z,89
2023-02-24T20:39:03.326Z,89
2023-02-24T20:42:03.348Z,90.2
2023-02-24T20:45:03.366Z,90.2
2023-02-24T20:48:03.343Z,90.2
2023-02-24T20:51:03.369Z,90.2
2023-02-24T20:54:03.306Z,90.2
2023-02-24T20:57:03.336Z,90.2
2023-02-24T21:00:06.548Z,90.2
2023-02-24T21:03:03.347Z,90.2
2023-02-24T21:06:24.444Z,90.2
2023-02-24T21:09:03.335Z,90.2
2023-02-24T21:12:03.382Z,90.2
2023-02-24T21:15:03.353Z,90.2
2023-02-24T21:18:03.346Z,90.2
2023-02-24T21:21:03.314Z,90.2
2023-02-24T21:24:03.320Z,90.2
2023-02-24T21:27:03.435Z,90.2
2023-02-24T21:30:03.282Z,90.2
2023-02-24T21:33:03.291Z,89.3
2023-02-24T21:36:03.335Z,89.3
2023-02-24T21:39:03.434Z,89.3
2023-02-24T21:42:03.286Z,89.3
2023-02-24T21:45:03.507Z,89.3
2023-02-24T21:48:03.347Z,89.3
2023-02-24T21:51:03.407Z,89.3
2023-02-24T21:54:03.332Z,89.3
2023-02-24T21:57:03.394Z,89.3
2023-02-24T22:00:03.368Z,89.3
2023-02-24T22:03:03.547Z,89.3
2023-02-24T22:06:03.340Z,89.3
2023-02-24T22:09:03.360Z,89.3
2023-02-24T22:12:03.353Z,89.3
2023-02-24T22:15:03.365Z,89.3
2023-02-24T22:18:03.318Z,89.3
2023-02-24T22:21:03.339Z,89.3
2023-02-24T22:24:03.370Z,89.3
2023-02-24T22:27:03.403Z,89.3
2023-02-24T22:30:03.312Z,89.3
2023-02-24T22:33:03.327Z,89.3
2023-02-24T22:36:03.390Z,89.3
2023-02-24T22:39:03.378Z,89.3
2023-02-24T22:42:03.282Z,89.3
2023-02-24T22:45:03.322Z,89.3
2023-02-24T22:48:03.497Z,89.3
2023-02-24T22:51:03.390Z,89.3
2023-02-24T22:54:03.324Z,89.3
2023-02-24T22:57:03.305Z,89.3
2023-02-24T23:00:03.762Z,89.3
2023-02-24T23:03:03.338Z,89.3
2023-02-24T23:06:03.348Z,89.3
2023-02-24T23:09:03.352Z,89.3
2023-02-24T23:12:03.277Z,89.3
2023-02-24T23:15:03.359Z,89.3
2023-02-24T23:18:03.329Z,89.3
2023-02-24T23:21:03.357Z,89.3
2023-02-24T23:24:03.322Z,89.3
2023-02-24T23:27:03.357Z,89.3
2023-02-24T23:30:03.360Z,89.3
2023-02-24T23:33:03.300Z,89.3
2023-02-24T23:36:03.384Z,89.3
2023-02-24T23:39:03.288Z,89.3
2023-02-24T23:42:03.361Z,89.3
2023-02-24T23:45:03.318Z,89.3
2023-02-24T23:48:03.391Z,89.3
2023-02-24T23:51:03.318Z,89.3
2023-02-24T23:54:03.354Z,89.3
2023-02-24T23:57:03.309Z,89.3
